sensor_id;sensor_type;location;lat;lon;timestamp;pressure;altitude;pressure_sealevel;temperature;humidity
15674;BME280;7937;48.090;16.212;2023-05-24T00:02:58;97675.75;;;14.53;83.04
15674;BME280;7937;48.090;16.212;2023-05-24T00:06:01;97687.53;;;14.57;82.82
15674;BME280;7937;48.090;16.212;2023-05-24T00:09:07;97687.00;;;14.55;82.66
15674;BME280;7937;48.090;16.212;2023-05-24T00:12:10;97691.53;;;14.44;83.37
15674;BME280;7937;48.090;16.212;2023-05-24T00:15:12;97678.38;;;14.38;83.47
15674;BME280;7937;48.090;16.212;2023-05-24T00:18:14;97685.38;;;14.44;83.17
15674;BME280;7937;48.090;16.212;2023-05-24T00:21:19;97685.88;;;14.41;82.87
15674;BME280;7937;48.090;16.212;2023-05-24T00:24:21;97661.22;;;14.29;82.13
15674;BME280;7937;48.090;16.212;2023-05-24T00:27:24;97685.13;;;14.51;82.21
15674;BME280;7937;48.090;16.212;2023-05-24T00:30:27;97695.00;;;14.45;82.58
15674;BME280;7937;48.090;16.212;2023-05-24T00:33:29;97692.31;;;14.40;83.19
15674;BME280;7937;48.090;16.212;2023-05-24T00:36:32;97692.59;;;14.43;82.35
15674;BME280;7937;48.090;16.212;2023-05-24T00:39:34;97660.94;;;14.15;82.16
15674;BME280;7937;48.090;16.212;2023-05-24T00:42:36;97690.44;;;14.35;81.30
15674;BME280;7937;48.090;16.212;2023-05-24T00:45:39;97690.94;;;14.32;82.03
15674;BME280;7937;48.090;16.212;2023-05-24T00:48:42;97694.19;;;14.29;82.00
15674;BME280;7937;48.090;16.212;2023-05-24T00:51:46;97703.53;;;14.27;82.15
15674;BME280;7937;48.090;16.212;2023-05-24T00:54:49;97690.13;;;14.11;83.30
15674;BME280;7937;48.090;16.212;2023-05-24T00:57:52;97700.56;;;14.18;84.04
15674;BME280;7937;48.090;16.212;2023-05-24T01:01:00;97687.38;;;13.91;85.81
15674;BME280;7937;48.090;16.212;2023-05-24T01:04:03;97705.03;;;13.87;86.44
15674;BME280;7937;48.090;16.212;2023-05-24T01:11:00;97702.53;;;13.65;87.66
15674;BME280;7937;48.090;16.212;2023-05-24T01:14:20;97700.09;;;13.58;88.05
15674;BME280;7937;48.090;16.212;2023-05-24T01:18:04;97704.59;;;13.48;88.32
15674;BME280;7937;48.090;16.212;2023-05-24T01:27:54;97700.38;;;13.20;89.02
15674;BME280;7937;48.090;16.212;2023-05-24T01:30:58;97692.31;;;13.14;89.12
15674;BME280;7937;48.090;16.212;2023-05-24T01:34:01;97695.22;;;13.08;89.17
15674;BME280;7937;48.090;16.212;2023-05-24T01:37:03;97701.59;;;13.02;89.42
15674;BME280;7937;48.090;16.212;2023-05-24T01:40:06;97697.53;;;12.94;89.98
15674;BME280;7937;48.090;16.212;2023-05-24T01:43:29;97694.84;;;12.94;90.08
15674;BME280;7937;48.090;16.212;2023-05-24T01:46:38;97679.31;;;12.86;90.13
15674;BME280;7937;48.090;16.212;2023-05-24T01:49:47;97679.38;;;12.96;89.25
15674;BME280;7937;48.090;16.212;2023-05-24T01:52:51;97686.88;;;12.99;88.85
15674;BME280;7937;48.090;16.212;2023-05-24T01:55:56;97687.66;;;13.00;88.75
15674;BME280;7937;48.090;16.212;2023-05-24T01:58:59;97688.97;;;12.92;88.92
15674;BME280;7937;48.090;16.212;2023-05-24T02:02:03;97695.03;;;12.82;89.92
15674;BME280;7937;48.090;16.212;2023-05-24T02:05:06;97699.78;;;12.75;89.67
15674;BME280;7937;48.090;16.212;2023-05-24T02:08:08;97697.59;;;12.67;89.94
15674;BME280;7937;48.090;16.212;2023-05-24T02:11:11;97700.19;;;12.57;90.08
15674;BME280;7937;48.090;16.212;2023-05-24T02:14:14;97693.09;;;12.46;90.53
15674;BME280;7937;48.090;16.212;2023-05-24T02:17:18;97694.84;;;12.30;90.96
15674;BME280;7937;48.090;16.212;2023-05-24T02:20:20;97698.53;;;12.24;91.12
15674;BME280;7937;48.090;16.212;2023-05-24T02:23:26;97710.25;;;12.23;91.18
15674;BME280;7937;48.090;16.212;2023-05-24T02:26:29;97711.34;;;12.22;91.93
15674;BME280;7937;48.090;16.212;2023-05-24T02:29:32;97707.69;;;12.33;91.54
15674;BME280;7937;48.090;16.212;2023-05-24T02:32:34;97705.84;;;12.33;91.51
15674;BME280;7937;48.090;16.212;2023-05-24T02:35:37;97689.66;;;12.18;91.60
15674;BME280;7937;48.090;16.212;2023-05-24T02:38:42;97716.19;;;12.30;91.24
15674;BME280;7937;48.090;16.212;2023-05-24T02:41:48;97682.03;;;12.05;91.80
15674;BME280;7937;48.090;16.212;2023-05-24T02:44:51;97714.28;;;12.25;91.43
15674;BME280;7937;48.090;16.212;2023-05-24T02:47:53;97711.63;;;12.25;91.22
15674;BME280;7937;48.090;16.212;2023-05-24T02:50:55;97714.22;;;12.20;91.79
15674;BME280;7937;48.090;16.212;2023-05-24T02:53:58;97718.72;;;12.14;91.89
15674;BME280;7937;48.090;16.212;2023-05-24T02:57:02;97713.81;;;12.06;91.97
15674;BME280;7937;48.090;16.212;2023-05-24T03:00:08;97722.06;;;12.05;92.13
15674;BME280;7937;48.090;16.212;2023-05-24T03:03:14;97711.97;;;11.85;92.51
15674;BME280;7937;48.090;16.212;2023-05-24T03:06:17;97725.69;;;11.94;92.37
15674;BME280;7937;48.090;16.212;2023-05-24T03:09:20;97742.47;;;11.89;92.85
15674;BME280;7937;48.090;16.212;2023-05-24T03:12:23;97718.69;;;11.71;92.75
15674;BME280;7937;48.090;16.212;2023-05-24T03:15:25;97734.28;;;11.79;92.68
15674;BME280;7937;48.090;16.212;2023-05-24T03:18:28;97744.56;;;11.87;92.66
15674;BME280;7937;48.090;16.212;2023-05-24T03:21:31;97742.53;;;11.94;92.03
15674;BME280;7937;48.090;16.212;2023-05-24T03:24:33;97758.59;;;11.99;91.46
15674;BME280;7937;48.090;16.212;2023-05-24T03:27:36;97733.81;;;12.04;91.38
15674;BME280;7937;48.090;16.212;2023-05-24T03:30:39;97729.53;;;12.03;90.75
15674;BME280;7937;48.090;16.212;2023-05-24T03:33:41;97725.88;;;12.09;90.17
15674;BME280;7937;48.090;16.212;2023-05-24T03:36:43;97721.75;;;12.23;88.68
15674;BME280;7937;48.090;16.212;2023-05-24T03:39:46;97726.72;;;12.36;86.80
15674;BME280;7937;48.090;16.212;2023-05-24T03:43:04;97731.53;;;12.39;86.71
15674;BME280;7937;48.090;16.212;2023-05-24T03:46:16;97726.19;;;12.39;86.67
15674;BME280;7937;48.090;16.212;2023-05-24T03:49:19;97728.31;;;12.37;87.60
15674;BME280;7937;48.090;16.212;2023-05-24T03:52:21;97673.81;;;12.11;85.57
15674;BME280;7937;48.090;16.212;2023-05-24T03:55:23;97734.06;;;12.51;85.07
15674;BME280;7937;48.090;16.212;2023-05-24T03:58:25;97732.09;;;12.42;85.52
15674;BME280;7937;48.090;16.212;2023-05-24T04:01:29;97751.59;;;12.42;86.89
15674;BME280;7937;48.090;16.212;2023-05-24T04:04:36;97751.88;;;12.46;85.47
15674;BME280;7937;48.090;16.212;2023-05-24T04:07:38;97734.16;;;12.34;85.71
15674;BME280;7937;48.090;16.212;2023-05-24T04:10:41;97748.19;;;12.47;86.50
15674;BME280;7937;48.090;16.212;2023-05-24T04:13:45;97758.59;;;12.48;85.89
15674;BME280;7937;48.090;16.212;2023-05-24T04:16:47;97765.88;;;12.53;85.29
15674;BME280;7937;48.090;16.212;2023-05-24T04:19:52;97772.50;;;12.50;86.49
15674;BME280;7937;48.090;16.212;2023-05-24T04:22:54;97777.84;;;12.50;85.47
15674;BME280;7937;48.090;16.212;2023-05-24T04:25:57;97775.81;;;12.57;84.60
15674;BME280;7937;48.090;16.212;2023-05-24T04:28:59;97771.91;;;12.70;83.93
15674;BME280;7937;48.090;16.212;2023-05-24T04:32:03;97777.97;;;12.60;86.12
15674;BME280;7937;48.090;16.212;2023-05-24T04:35:05;97738.69;;;12.34;86.54
15674;BME280;7937;48.090;16.212;2023-05-24T04:38:09;97774.84;;;12.69;84.48
15674;BME280;7937;48.090;16.212;2023-05-24T04:41:13;97768.47;;;12.75;85.13
15674;BME280;7937;48.090;16.212;2023-05-24T04:44:16;97768.75;;;12.73;84.92
15674;BME280;7937;48.090;16.212;2023-05-24T04:47:18;97782.09;;;12.73;84.57
15674;BME280;7937;48.090;16.212;2023-05-24T04:50:20;97779.69;;;12.72;83.84
15674;BME280;7937;48.090;16.212;2023-05-24T04:53:24;97777.19;;;12.92;83.06
15674;BME280;7937;48.090;16.212;2023-05-24T04:56:26;97769.72;;;12.94;82.88
15674;BME280;7937;48.090;16.212;2023-05-24T04:59:28;97776.44;;;12.97;82.77
15674;BME280;7937;48.090;16.212;2023-05-24T05:02:31;97791.41;;;12.98;83.26
15674;BME280;7937;48.090;16.212;2023-05-24T05:05:33;97783.56;;;12.86;83.79
15674;BME280;7937;48.090;16.212;2023-05-24T05:08:36;97807.78;;;13.01;83.40
15674;BME280;7937;48.090;16.212;2023-05-24T05:11:38;97804.53;;;12.99;83.07
15674;BME280;7937;48.090;16.212;2023-05-24T05:14:41;97814.47;;;13.04;83.07
15674;BME280;7937;48.090;16.212;2023-05-24T05:17:43;97801.91;;;13.04;82.74
15674;BME280;7937;48.090;16.212;2023-05-24T05:20:46;97803.88;;;13.19;82.09
15674;BME280;7937;48.090;16.212;2023-05-24T05:23:48;97804.97;;;13.18;81.55
15674;BME280;7937;48.090;16.212;2023-05-24T05:26:51;97812.72;;;13.20;82.40
15674;BME280;7937;48.090;16.212;2023-05-24T05:29:53;97816.78;;;13.22;81.65
15674;BME280;7937;48.090;16.212;2023-05-24T05:32:55;97827.53;;;13.27;82.00
15674;BME280;7937;48.090;16.212;2023-05-24T05:35:58;97825.44;;;13.34;81.13
15674;BME280;7937;48.090;16.212;2023-05-24T05:39:01;97821.19;;;13.38;81.30
15674;BME280;7937;48.090;16.212;2023-05-24T05:42:03;97817.50;;;13.45;80.26
15674;BME280;7937;48.090;16.212;2023-05-24T05:45:06;97824.97;;;13.42;80.42
15674;BME280;7937;48.090;16.212;2023-05-24T05:48:09;97829.56;;;13.47;79.64
15674;BME280;7937;48.090;16.212;2023-05-24T05:51:11;97826.34;;;13.45;79.82
15674;BME280;7937;48.090;16.212;2023-05-24T05:54:13;97825.47;;;13.39;80.31
15674;BME280;7937;48.090;16.212;2023-05-24T05:57:17;97837.09;;;13.50;80.67
15674;BME280;7937;48.090;16.212;2023-05-24T06:00:25;97824.88;;;13.64;79.22
15674;BME280;7937;48.090;16.212;2023-05-24T06:03:27;97821.22;;;13.81;78.93
15674;BME280;7937;48.090;16.212;2023-05-24T06:06:30;97822.38;;;13.95;79.16
15674;BME280;7937;48.090;16.212;2023-05-24T06:09:32;97836.13;;;14.09;77.42
15674;BME280;7937;48.090;16.212;2023-05-24T06:12:34;97834.75;;;14.06;77.21
15674;BME280;7937;48.090;16.212;2023-05-24T06:15:37;97836.59;;;14.01;77.04
15674;BME280;7937;48.090;16.212;2023-05-24T06:18:39;97840.66;;;14.08;75.84
15674;BME280;7937;48.090;16.212;2023-05-24T06:21:54;97838.81;;;14.09;76.13
15674;BME280;7937;48.090;16.212;2023-05-24T06:24:56;97841.47;;;14.09;77.13
15674;BME280;7937;48.090;16.212;2023-05-24T06:27:59;97845.03;;;14.25;76.92
15674;BME280;7937;48.090;16.212;2023-05-24T06:31:02;97847.16;;;14.28;76.00
15674;BME280;7937;48.090;16.212;2023-05-24T06:34:05;97844.44;;;14.17;76.52
15674;BME280;7937;48.090;16.212;2023-05-24T06:37:07;97825.88;;;13.96;76.25
15674;BME280;7937;48.090;16.212;2023-05-24T06:40:11;97831.72;;;13.92;77.15
15674;BME280;7937;48.090;16.212;2023-05-24T06:43:14;97838.81;;;14.09;75.61
15674;BME280;7937;48.090;16.212;2023-05-24T06:46:17;97815.19;;;14.06;75.73
15674;BME280;7937;48.090;16.212;2023-05-24T06:49:20;97855.25;;;14.38;76.09
15674;BME280;7937;48.090;16.212;2023-05-24T06:52:23;97847.41;;;14.79;73.48
15674;BME280;7937;48.090;16.212;2023-05-24T06:55:26;97822.94;;;14.60;72.27
15674;BME280;7937;48.090;16.212;2023-05-24T06:58:28;97851.13;;;14.78;72.45
15674;BME280;7937;48.090;16.212;2023-05-24T07:01:31;97841.72;;;14.60;72.31
15674;BME280;7937;48.090;16.212;2023-05-24T07:04:34;97844.88;;;14.52;71.36
15674;BME280;7937;48.090;16.212;2023-05-24T07:07:41;97874.16;;;14.58;72.17
15674;BME280;7937;48.090;16.212;2023-05-24T07:10:44;97870.16;;;14.71;71.10
15674;BME280;7937;48.090;16.212;2023-05-24T07:13:46;97874.22;;;14.79;72.97
15674;BME280;7937;48.090;16.212;2023-05-24T07:16:48;97868.09;;;14.99;72.62
15674;BME280;7937;48.090;16.212;2023-05-24T07:19:51;97872.69;;;15.08;72.14
15674;BME280;7937;48.090;16.212;2023-05-24T07:22:53;97880.16;;;15.01;70.81
15674;BME280;7937;48.090;16.212;2023-05-24T07:25:55;97886.59;;;14.95;70.63
15674;BME280;7937;48.090;16.212;2023-05-24T07:28:58;97876.09;;;14.78;71.88
15674;BME280;7937;48.090;16.212;2023-05-24T07:32:00;97883.28;;;14.73;72.63
15674;BME280;7937;48.090;16.212;2023-05-24T07:35:02;97886.00;;;14.78;71.63
15674;BME280;7937;48.090;16.212;2023-05-24T07:38:05;97854.38;;;14.90;70.59
15674;BME280;7937;48.090;16.212;2023-05-24T07:41:07;97887.13;;;14.97;71.38
15674;BME280;7937;48.090;16.212;2023-05-24T07:44:11;97881.72;;;14.87;70.96
15674;BME280;7937;48.090;16.212;2023-05-24T07:47:14;97902.41;;;14.91;71.32
15674;BME280;7937;48.090;16.212;2023-05-24T07:50:17;97900.81;;;14.95;71.39
15674;BME280;7937;48.090;16.212;2023-05-24T07:53:20;97896.50;;;14.84;71.95
15674;BME280;7937;48.090;16.212;2023-05-24T07:56:23;97901.31;;;14.87;71.59
15674;BME280;7937;48.090;16.212;2023-05-24T07:59:26;97908.84;;;14.90;71.95
15674;BME280;7937;48.090;16.212;2023-05-24T08:02:29;97915.28;;;14.94;71.03
15674;BME280;7937;48.090;16.212;2023-05-24T08:05:32;97913.94;;;14.92;70.71
15674;BME280;7937;48.090;16.212;2023-05-24T08:08:34;97909.16;;;15.04;69.63
15674;BME280;7937;48.090;16.212;2023-05-24T08:11:37;97893.84;;;14.94;71.13
15674;BME280;7937;48.090;16.212;2023-05-24T08:14:39;97905.91;;;15.02;69.75
15674;BME280;7937;48.090;16.212;2023-05-24T08:17:41;97907.28;;;15.15;69.49
15674;BME280;7937;48.090;16.212;2023-05-24T08:20:44;97874.31;;;15.30;65.57
15674;BME280;7937;48.090;16.212;2023-05-24T08:23:46;97907.59;;;15.54;66.17
15674;BME280;7937;48.090;16.212;2023-05-24T08:26:48;97910.56;;;15.58;67.92
15674;BME280;7937;48.090;16.212;2023-05-24T08:29:53;97876.97;;;15.60;69.53
15674;BME280;7937;48.090;16.212;2023-05-24T08:32:57;97902.50;;;16.04;69.42
15674;BME280;7937;48.090;16.212;2023-05-24T08:36:00;97905.44;;;16.17;66.28
15674;BME280;7937;48.090;16.212;2023-05-24T08:39:04;97905.16;;;16.24;66.53
15674;BME280;7937;48.090;16.212;2023-05-24T08:42:06;97877.75;;;16.17;65.87
15674;BME280;7937;48.090;16.212;2023-05-24T08:45:12;97857.81;;;16.33;64.70
15674;BME280;7937;48.090;16.212;2023-05-24T08:48:15;97901.53;;;16.59;65.17
15674;BME280;7937;48.090;16.212;2023-05-24T08:51:19;97902.63;;;16.58;63.90
15674;BME280;7937;48.090;16.212;2023-05-24T08:54:22;97890.34;;;16.32;63.24
15674;BME280;7937;48.090;16.212;2023-05-24T08:57:30;97895.66;;;16.52;64.88
15674;BME280;7937;48.090;16.212;2023-05-24T09:00:33;97876.03;;;16.51;64.39
15674;BME280;7937;48.090;16.212;2023-05-24T09:03:36;97905.31;;;16.58;64.82
15674;BME280;7937;48.090;16.212;2023-05-24T09:06:39;97912.56;;;16.58;64.05
15674;BME280;7937;48.090;16.212;2023-05-24T09:09:46;97918.03;;;16.37;65.16
15674;BME280;7937;48.090;16.212;2023-05-24T09:12:54;97901.38;;;16.20;65.91
15674;BME280;7937;48.090;16.212;2023-05-24T09:15:58;97895.72;;;16.32;66.74
15674;BME280;7937;48.090;16.212;2023-05-24T09:19:01;97925.25;;;16.52;64.30
15674;BME280;7937;48.090;16.212;2023-05-24T09:22:05;97913.16;;;16.44;66.74
15674;BME280;7937;48.090;16.212;2023-05-24T09:25:09;97926.84;;;16.48;63.42
15674;BME280;7937;48.090;16.212;2023-05-24T09:28:15;97915.63;;;16.15;65.29
15674;BME280;7937;48.090;16.212;2023-05-24T09:31:18;97921.56;;;16.22;65.61
15674;BME280;7937;48.090;16.212;2023-05-24T09:34:42;97896.81;;;16.25;65.24
15674;BME280;7937;48.090;16.212;2023-05-24T09:37:45;97922.78;;;16.61;65.44
15674;BME280;7937;48.090;16.212;2023-05-24T09:41:02;97918.47;;;16.75;66.39
15674;BME280;7937;48.090;16.212;2023-05-24T09:44:05;97924.66;;;16.65;64.03
15674;BME280;7937;48.090;16.212;2023-05-24T09:47:08;97926.84;;;16.48;64.24
15674;BME280;7937;48.090;16.212;2023-05-24T09:50:13;97929.00;;;16.56;63.71
15674;BME280;7937;48.090;16.212;2023-05-24T09:53:16;97920.34;;;16.64;64.06
15674;BME280;7937;48.090;16.212;2023-05-24T09:56:21;97921.97;;;16.65;62.39
15674;BME280;7937;48.090;16.212;2023-05-24T09:59:25;97918.81;;;16.38;65.02
15674;BME280;7937;48.090;16.212;2023-05-24T10:02:29;97902.88;;;16.62;64.41
15674;BME280;7937;48.090;16.212;2023-05-24T10:05:45;97917.88;;;16.83;63.36
15674;BME280;7937;48.090;16.212;2023-05-24T10:08:48;97916.50;;;16.91;64.99
15674;BME280;7937;48.090;16.212;2023-05-24T10:11:51;97912.72;;;16.92;62.41
15674;BME280;7937;48.090;16.212;2023-05-24T10:14:54;97922.06;;;17.10;60.96
15674;BME280;7937;48.090;16.212;2023-05-24T10:17:58;97919.16;;;17.01;60.68
15674;BME280;7937;48.090;16.212;2023-05-24T10:21:13;97911.13;;;16.91;61.46
15674;BME280;7937;48.090;16.212;2023-05-24T10:24:18;97917.84;;;16.88;62.09
15674;BME280;7937;48.090;16.212;2023-05-24T10:27:26;97923.47;;;16.97;62.97
15674;BME280;7937;48.090;16.212;2023-05-24T10:33:46;97899.28;;;16.92;60.60
15674;BME280;7937;48.090;16.212;2023-05-24T10:36:50;97912.69;;;16.97;62.96
15674;BME280;7937;48.090;16.212;2023-05-24T10:39:53;97926.06;;;17.12;61.88
15674;BME280;7937;48.090;16.212;2023-05-24T10:42:55;97925.72;;;17.24;62.46
15674;BME280;7937;48.090;16.212;2023-05-24T10:46:02;97924.88;;;17.28;60.97
15674;BME280;7937;48.090;16.212;2023-05-24T10:49:05;97928.03;;;17.46;62.46
15674;BME280;7937;48.090;16.212;2023-05-24T10:52:09;97923.28;;;17.67;57.95
15674;BME280;7937;48.090;16.212;2023-05-24T10:55:12;97931.19;;;17.53;59.82
15674;BME280;7937;48.090;16.212;2023-05-24T10:58:14;97928.09;;;17.36;58.53
15674;BME280;7937;48.090;16.212;2023-05-24T11:01:26;97947.03;;;17.20;59.88
15674;BME280;7937;48.090;16.212;2023-05-24T11:04:35;97934.78;;;17.38;58.51
15674;BME280;7937;48.090;16.212;2023-05-24T11:07:41;97905.50;;;17.32;57.92
15674;BME280;7937;48.090;16.212;2023-05-24T11:10:46;97911.03;;;17.50;58.55
15674;BME280;7937;48.090;16.212;2023-05-24T11:13:54;97925.41;;;17.75;61.15
15674;BME280;7937;48.090;16.212;2023-05-24T11:16:57;97926.28;;;18.28;57.93
15674;BME280;7937;48.090;16.212;2023-05-24T11:20:05;97901.44;;;17.73;54.93
15674;BME280;7937;48.090;16.212;2023-05-24T11:23:10;97936.31;;;17.54;56.36
15674;BME280;7937;48.090;16.212;2023-05-24T11:26:13;97920.00;;;17.36;56.43
15674;BME280;7937;48.090;16.212;2023-05-24T11:29:16;97912.00;;;17.25;56.17
15674;BME280;7937;48.090;16.212;2023-05-24T11:32:20;97927.16;;;17.56;55.50
15674;BME280;7937;48.090;16.212;2023-05-24T11:35:23;97914.94;;;17.29;55.43
15674;BME280;7937;48.090;16.212;2023-05-24T11:38:28;97922.94;;;17.44;57.10
15674;BME280;7937;48.090;16.212;2023-05-24T11:41:34;97919.28;;;17.64;56.47
15674;BME280;7937;48.090;16.212;2023-05-24T11:44:38;97932.31;;;17.47;56.51
15674;BME280;7937;48.090;16.212;2023-05-24T11:47:40;97928.69;;;17.27;56.68
15674;BME280;7937;48.090;16.212;2023-05-24T11:50:45;97927.88;;;17.27;57.23
15674;BME280;7937;48.090;16.212;2023-05-24T11:53:51;97928.09;;;17.36;55.98
15674;BME280;7937;48.090;16.212;2023-05-24T11:56:55;97931.47;;;17.51;54.85
15674;BME280;7937;48.090;16.212;2023-05-24T11:59:58;97924.75;;;17.54;53.79
15674;BME280;7937;48.090;16.212;2023-05-24T12:03:01;97922.16;;;17.34;55.28
15674;BME280;7937;48.090;16.212;2023-05-24T12:06:08;97914.38;;;17.32;56.37
15674;BME280;7937;48.090;16.212;2023-05-24T12:09:11;97926.38;;;17.50;56.65
15674;BME280;7937;48.090;16.212;2023-05-24T12:12:14;97927.00;;;17.37;56.66
15674;BME280;7937;48.090;16.212;2023-05-24T12:15:17;97936.66;;;17.43;56.45
15674;BME280;7937;48.090;16.212;2023-05-24T12:18:20;97931.19;;;17.09;57.67
15674;BME280;7937;48.090;16.212;2023-05-24T12:21:23;97927.25;;;16.96;58.76
15674;BME280;7937;48.090;16.212;2023-05-24T12:24:26;97922.91;;;17.05;57.57
15674;BME280;7937;48.090;16.212;2023-05-24T12:27:29;97893.16;;;16.71;58.05
15674;BME280;7937;48.090;16.212;2023-05-24T12:30:32;97916.84;;;16.74;59.28
15674;BME280;7937;48.090;16.212;2023-05-24T12:33:34;97904.19;;;16.74;59.43
15674;BME280;7937;48.090;16.212;2023-05-24T12:36:37;97903.94;;;16.71;58.74
15674;BME280;7937;48.090;16.212;2023-05-24T12:39:40;97905.50;;;16.82;58.19
15674;BME280;7937;48.090;16.212;2023-05-24T12:42:55;97917.56;;;16.95;60.23
15674;BME280;7937;48.090;16.212;2023-05-24T12:45:58;97914.59;;;16.96;62.46
15674;BME280;7937;48.090;16.212;2023-05-24T12:49:01;97920.78;;;16.97;60.27
15674;BME280;7937;48.090;16.212;2023-05-24T12:52:05;97923.41;;;17.07;59.30
15674;BME280;7937;48.090;16.212;2023-05-24T12:55:08;97919.97;;;16.96;60.00
15674;BME280;7937;48.090;16.212;2023-05-24T12:58:11;97918.69;;;16.84;60.39
15674;BME280;7937;48.090;16.212;2023-05-24T13:01:18;97920.31;;;16.85;58.81
15674;BME280;7937;48.090;16.212;2023-05-24T13:04:22;97916.28;;;16.82;59.96
15674;BME280;7937;48.090;16.212;2023-05-24T13:07:25;97671.16;;;15.15;58.70
15674;BME280;7937;48.090;16.212;2023-05-24T13:10:28;97453.03;;;13.99;61.40
15674;BME280;7937;48.090;16.212;2023-05-24T13:13:30;97879.25;;;17.08;57.39
15674;BME280;7937;48.090;16.212;2023-05-24T13:16:34;97842.09;;;16.61;57.96
15674;BME280;7937;48.090;16.212;2023-05-24T13:19:36;97726.00;;;15.89;58.22
15674;BME280;7937;48.090;16.212;2023-05-24T13:22:39;97676.41;;;15.66;57.68
15674;BME280;7937;48.090;16.212;2023-05-24T13:25:41;97789.56;;;16.24;58.02
15674;BME280;7937;48.090;16.212;2023-05-24T13:28:44;97742.66;;;15.91;58.55
15674;BME280;7937;48.090;16.212;2023-05-24T13:32:06;97811.38;;;16.17;57.93
15674;BME280;7937;48.090;16.212;2023-05-24T13:35:08;97846.56;;;16.26;59.53
15674;BME280;7937;48.090;16.212;2023-05-24T13:38:12;97841.34;;;16.45;60.14
15674;BME280;7937;48.090;16.212;2023-05-24T13:41:15;97833.66;;;16.23;60.08
15674;BME280;7937;48.090;16.212;2023-05-24T13:44:18;97784.81;;;15.95;61.56
15674;BME280;7937;48.090;16.212;2023-05-24T13:47:20;97930.25;;;16.84;60.73
15674;BME280;7937;48.090;16.212;2023-05-24T13:50:40;97686.69;;;15.33;61.66
15674;BME280;7937;48.090;16.212;2023-05-24T13:53:43;97607.38;;;14.76;62.32
15674;BME280;7937;48.090;16.212;2023-05-24T13:56:45;97657.47;;;15.11;61.34
15674;BME280;7937;48.090;16.212;2023-05-24T13:59:49;97614.88;;;14.89;61.84
15674;BME280;7937;48.090;16.212;2023-05-24T14:02:52;97840.00;;;16.47;60.92
15674;BME280;7937;48.090;16.212;2023-05-24T14:05:54;97733.47;;;16.07;59.32
15674;BME280;7937;48.090;16.212;2023-05-24T14:08:57;97716.81;;;16.00;61.04
15674;BME280;7937;48.090;16.212;2023-05-24T14:12:03;97638.47;;;15.83;61.52
15674;BME280;7937;48.090;16.212;2023-05-24T14:15:09;97731.16;;;16.35;60.00
15674;BME280;7937;48.090;16.212;2023-05-24T14:18:11;97892.88;;;17.61;61.34
15674;BME280;7937;48.090;16.212;2023-05-24T14:21:14;97892.94;;;17.56;60.16
15674;BME280;7937;48.090;16.212;2023-05-24T14:24:16;97704.91;;;16.21;60.45
15674;BME280;7937;48.090;16.212;2023-05-24T14:27:19;97660.22;;;15.86;60.43
15674;BME280;7937;48.090;16.212;2023-05-24T14:30:21;97793.53;;;16.91;59.02
15674;BME280;7937;48.090;16.212;2023-05-24T14:33:25;97633.84;;;15.93;59.96
15674;BME280;7937;48.090;16.212;2023-05-24T14:36:28;97885.66;;;17.57;59.81
15674;BME280;7937;48.090;16.212;2023-05-24T14:39:30;97856.34;;;17.16;58.27
15674;BME280;7937;48.090;16.212;2023-05-24T14:42:32;97626.75;;;15.63;59.25
15674;BME280;7937;48.090;16.212;2023-05-24T14:45:34;97656.50;;;15.77;59.66
15674;BME280;7937;48.090;16.212;2023-05-24T14:48:44;97718.25;;;16.37;58.02
15674;BME280;7937;48.090;16.212;2023-05-24T14:51:47;97770.94;;;16.87;59.91
15674;BME280;7937;48.090;16.212;2023-05-24T14:54:50;97629.56;;;15.92;59.08
15674;BME280;7937;48.090;16.212;2023-05-24T14:57:53;97714.94;;;16.55;58.71
15674;BME280;7937;48.090;16.212;2023-05-24T15:00:55;97654.56;;;16.32;57.80
15674;BME280;7937;48.090;16.212;2023-05-24T15:03:58;97723.97;;;16.64;57.86
15674;BME280;7937;48.090;16.212;2023-05-24T15:07:01;97805.50;;;17.09;59.80
15674;BME280;7937;48.090;16.212;2023-05-24T15:10:04;97729.13;;;16.61;57.90
15674;BME280;7937;48.090;16.212;2023-05-24T15:13:07;97751.72;;;16.60;58.73
15674;BME280;7937;48.090;16.212;2023-05-24T15:16:09;97761.13;;;16.62;57.71
15674;BME280;7937;48.090;16.212;2023-05-24T15:19:11;97786.72;;;16.99;57.22
15674;BME280;7937;48.090;16.212;2023-05-24T15:22:16;97750.84;;;16.69;57.63
15674;BME280;7937;48.090;16.212;2023-05-24T15:25:18;97671.06;;;16.15;58.33
15674;BME280;7937;48.090;16.212;2023-05-24T15:28:21;97762.25;;;16.56;59.02
15674;BME280;7937;48.090;16.212;2023-05-24T15:31:27;97553.06;;;15.20;57.81
15674;BME280;7937;48.090;16.212;2023-05-24T15:34:29;97790.13;;;16.70;57.41
15674;BME280;7937;48.090;16.212;2023-05-24T15:37:31;97591.81;;;15.58;57.91
15674;BME280;7937;48.090;16.212;2023-05-24T15:40:34;97765.50;;;16.48;59.76
15674;BME280;7937;48.090;16.212;2023-05-24T15:43:39;97625.91;;;15.63;58.65
15674;BME280;7937;48.090;16.212;2023-05-24T15:46:41;97779.41;;;16.65;57.71
15674;BME280;7937;48.090;16.212;2023-05-24T15:49:44;97750.06;;;16.19;58.18
15674;BME280;7937;48.090;16.212;2023-05-24T15:52:47;97684.53;;;16.05;58.63
15674;BME280;7937;48.090;16.212;2023-05-24T15:55:50;97830.19;;;16.77;59.41
15674;BME280;7937;48.090;16.212;2023-05-24T15:58:53;97621.97;;;15.40;58.79
15674;BME280;7937;48.090;16.212;2023-05-24T16:01:55;97718.91;;;16.13;59.87
15674;BME280;7937;48.090;16.212;2023-05-24T16:04:58;97595.66;;;15.37;59.86
15674;BME280;7937;48.090;16.212;2023-05-24T16:08:02;97683.72;;;16.10;58.44
15674;BME280;7937;48.090;16.212;2023-05-24T16:11:05;97678.44;;;15.94;60.06
15674;BME280;7937;48.090;16.212;2023-05-24T16:14:09;97768.91;;;16.64;59.18
15674;BME280;7937;48.090;16.212;2023-05-24T16:17:11;97819.19;;;16.68;59.50
15674;BME280;7937;48.090;16.212;2023-05-24T16:20:16;97567.84;;;15.07;59.37
15674;BME280;7937;48.090;16.212;2023-05-24T16:23:19;97638.59;;;15.47;59.00
15674;BME280;7937;48.090;16.212;2023-05-24T16:26:24;97750.13;;;16.04;61.65
15674;BME280;7937;48.090;16.212;2023-05-24T16:29:27;97754.47;;;15.95;64.66